Time;durP1;ratioP1;P1;durP2;ratioP2;P2;SDS_P1;SDS_P2;PMS_P1;PMS_P2;Temp;Humidity;BMP_temperature;BMP_pressure;BME280_temperature;BME280_humidity;BME280_pressure;Samples;Min_cycle;Max_cycle;Signal;HPM_P1;HPM_P2
2022/09/05 00:02:48;;;;;;;2.50;1.50;;;20.50;84.20;;;;;;5005184;28;20048;-36
2022/09/05 00:05:33;;;;;;;4.43;2.20;;;20.50;84.50;;;;;;5007226;28;20038;-35
2022/09/05 00:08:19;;;;;;;2.95;1.88;;;20.40;84.40;;;;;;5008944;28;20645;-35
2022/09/05 00:11:07;;;;;;;3.67;2.00;;;20.40;84.50;;;;;;5006386;28;20049;-35
2022/09/05 00:13:41;;;;;;;2.67;1.85;;;20.30;84.70;;;;;;5009621;28;20049;-35
2022/09/05 00:16:26;;;;;;;4.03;2.22;;;20.30;85.10;;;;;;5006280;28;20069;-35
2022/09/05 00:19:04;;;;;;;5.72;2.10;;;20.20;85.60;;;;;;5007751;28;20081;-36
2022/09/05 00:22:09;;;;;;;7.13;2.60;;;20.10;85.40;;;;;;5008762;28;20029;-36
2022/09/05 00:24:46;;;;;;;5.05;2.00;;;20.10;86.10;;;;;;5007471;28;20042;-36
2022/09/05 00:27:22;;;;;;;3.70;2.03;;;20.00;86.10;;;;;;5008238;28;20483;-37
2022/09/05 00:30:12;;;;;;;3.88;2.58;;;20.00;86.10;;;;;;5003040;28;20680;-35
2022/09/05 00:32:51;;;;;;;3.40;2.17;;;20.00;86.40;;;;;;5007748;28;20077;-36
2022/09/05 00:35:28;;;;;;;4.72;1.95;;;20.00;86.20;;;;;;5007680;28;20124;-35
2022/09/05 00:37:56;;;;;;;2.28;1.70;;;20.00;86.70;;;;;;5001305;28;20057;-36
2022/09/05 00:40:39;;;;;;;3.15;2.60;;;19.90;86.40;;;;;;5001531;28;20038;-36
2022/09/05 00:43:14;;;;;;;2.85;1.95;;;19.90;87.20;;;;;;5004430;28;20057;-35
2022/09/05 00:46:00;;;;;;;4.40;2.40;;;19.90;86.80;;;;;;5001939;28;20140;-36
2022/09/05 00:48:50;;;;;;;4.43;2.45;;;19.90;87.00;;;;;;5006503;28;20041;-35
2022/09/05 00:51:40;;;;;;;4.35;2.67;;;19.90;87.00;;;;;;5003384;28;20065;-36
2022/09/05 00:54:34;;;;;;;3.28;2.38;;;19.80;87.10;;;;;;5003667;28;20065;-36
2022/09/05 00:57:30;;;;;;;9.63;2.65;;;19.80;87.50;;;;;;5003668;28;20057;-36
2022/09/05 01:00:08;;;;;;;5.20;2.25;;;19.80;87.60;;;;;;5008397;28;20033;-35
2022/09/05 01:03:10;;;;;;;4.40;2.30;;;19.70;87.30;;;;;;5004999;28;20042;-36
2022/09/05 01:06:09;;;;;;;3.53;2.30;;;19.70;88.10;;;;;;5005744;28;20075;-35
2022/09/05 01:09:02;;;;;;;3.42;2.60;;;19.60;88.40;;;;;;5000020;28;20034;-35
2022/09/05 01:11:37;;;;;;;5.07;2.58;;;19.60;88.20;;;;;;5006372;28;20041;-36
2022/09/05 01:14:42;;;;;;;3.50;2.83;;;19.50;88.30;;;;;;5004875;28;20038;-36
2022/09/05 01:17:19;;;;;;;4.25;2.85;;;19.50;88.90;;;;;;5000362;28;20061;-35
2022/09/05 01:20:10;;;;;;;5.50;2.40;;;19.50;89.10;;;;;;5000049;28;20045;-35
2022/09/05 01:22:38;;;;;;;3.33;2.40;;;19.40;89.30;;;;;;5004891;28;20038;-35
2022/09/05 01:25:29;;;;;;;5.85;2.40;;;19.40;88.80;;;;;;5005138;28;20390;-35
2022/09/05 01:28:13;;;;;;;5.65;2.83;;;19.40;89.50;;;;;;4981276;28;20045;-36
2022/09/05 01:30:45;;;;;;;5.03;2.45;;;19.40;89.40;;;;;;5003309;28;20103;-36
2022/09/05 01:33:13;;;;;;;;;;;19.40;89.30;;;;;;5003830;28;20495;-35
2022/09/05 01:36:26;;;;;;;4.65;2.83;;;19.30;90.20;;;;;;5006234;28;19917;-36
2022/09/05 01:39:03;;;;;;;3.75;2.80;;;19.30;90.00;;;;;;5005635;28;20392;-36
2022/09/05 01:42:13;;;;;;;4.28;2.70;;;19.30;89.20;;;;;;5004771;28;20053;-36
2022/09/05 01:45:03;;;;;;;2.80;2.15;;;19.30;89.90;;;;;;5005593;28;20042;-36
2022/09/05 01:48:16;;;;;;;4.72;2.38;;;19.20;90.00;;;;;;5004014;28;20419;-35
2022/09/05 01:51:16;;;;;;;6.45;2.67;;;19.20;90.00;;;;;;4988531;28;20073;-36
2022/09/05 01:53:54;;;;;;;3.83;2.58;;;19.20;90.10;;;;;;5002701;28;20041;-36
2022/09/05 01:56:45;;;;;;;4.55;3.03;;;19.20;89.90;;;;;;5005501;28;20038;-36
2022/09/05 01:59:48;;;;;;;3.22;2.65;;;19.10;90.00;;;;;;4964443;28;20081;-37
2022/09/05 02:02:30;;;;;;;7.70;2.80;;;19.10;90.20;;;;;;5006735;28;20501;-36
2022/09/05 02:05:25;;;;;;;3.23;2.70;;;19.00;90.10;;;;;;5000624;28;20134;-35
2022/09/05 02:08:22;;;;;;;5.05;2.55;;;19.00;90.20;;;;;;4993893;28;20309;-36
2022/09/05 02:11:03;;;;;;;3.58;2.83;;;19.00;90.40;;;;;;5009530;28;20045;-37
2022/09/05 02:13:35;;;;;;;5.10;2.92;;;19.00;90.50;;;;;;5010168;28;20473;-34
2022/09/05 02:16:27;;;;;;;5.00;3.65;;;19.00;90.40;;;;;;5006011;28;20048;-38
2022/09/05 02:19:08;;;;;;;4.93;2.83;;;18.90;90.60;;;;;;5010359;28;20056;-35
2022/09/05 02:21:37;;;;;;;5.07;3.45;;;18.90;90.70;;;;;;5005170;28;20099;-36
2022/09/05 02:24:08;;;;;;;5.43;3.40;;;18.80;90.60;;;;;;5004646;28;20393;-35
2022/09/05 02:26:55;;;;;;;4.70;3.20;;;18.80;90.70;;;;;;5006160;28;20217;-35
2022/09/05 02:29:34;;;;;;;16.17;4.50;;;18.80;90.90;;;;;;5004759;28;20046;-37
2022/09/05 02:32:17;;;;;;;5.60;3.60;;;18.80;91.00;;;;;;5008328;28;20045;-35
2022/09/05 02:34:52;;;;;;;6.20;3.55;;;18.70;91.10;;;;;;4991098;28;20515;-35
2022/09/05 02:37:26;;;;;;;9.45;3.63;;;18.70;91.20;;;;;;5010727;28;20111;-35
2022/09/05 02:40:02;;;;;;;3.85;3.20;;;18.70;91.20;;;;;;5010247;28;20042;-36
2022/09/05 02:42:47;;;;;;;4.30;2.85;;;18.60;91.30;;;;;;5008802;28;20037;-35
2022/09/05 02:45:37;;;;;;;6.15;3.33;;;18.60;91.40;;;;;;5007076;28;20053;-36
2022/09/05 02:48:39;;;;;;;3.13;2.72;;;18.60;91.70;;;;;;5006886;28;20570;-34
2022/09/05 02:51:20;;;;;;;4.05;3.08;;;18.60;91.70;;;;;;5008949;28;20538;-36
2022/09/05 02:53:53;;;;;;;4.25;3.67;;;18.50;91.70;;;;;;5006442;28;20122;-36
2022/09/05 02:56:47;;;;;;;5.07;3.80;;;18.50;91.70;;;;;;5010723;28;20053;-36
2022/09/05 02:59:43;;;;;;;12.98;3.67;;;18.50;92.00;;;;;;5006437;28;20034;-36
2022/09/05 03:02:17;;;;;;;7.05;3.58;;;18.40;92.00;;;;;;5007472;28;20041;-37
2022/09/05 03:04:54;;;;;;;7.00;3.58;;;18.40;92.00;;;;;;5008068;28;20065;-35
2022/09/05 03:07:38;;;;;;;4.43;3.63;;;18.40;92.00;;;;;;5005877;28;20069;-35
2022/09/05 03:10:23;;;;;;;4.65;3.30;;;18.40;92.20;;;;;;5009857;28;20111;-37
2022/09/05 03:13:17;;;;;;;4.07;3.50;;;18.40;92.20;;;;;;5008208;28;20091;-37
2022/09/05 03:15:55;;;;;;;4.72;3.35;;;18.40;92.50;;;;;;5004403;28;20597;-35
2022/09/05 03:18:38;;;;;;;3.67;3.03;;;18.40;92.20;;;;;;5005428;28;20069;-35
2022/09/05 03:21:32;;;;;;;5.60;4.28;;;18.40;92.50;;;;;;5009041;28;20062;-35
2022/09/05 03:24:29;;;;;;;4.88;3.58;;;18.30;92.30;;;;;;5008071;28;20509;-34
2022/09/05 03:27:16;;;;;;;5.68;3.65;;;18.30;92.50;;;;;;5008432;28;20104;-37
2022/09/05 03:29:52;;;;;;;4.25;3.63;;;18.30;92.50;;;;;;5006578;28;20084;-34
2022/09/05 03:33:06;;;;;;;6.18;3.97;;;18.30;92.50;;;;;;5004616;28;20041;-35
2022/09/05 03:36:00;;;;;;;4.60;3.47;;;18.30;92.80;;;;;;5004710;28;20044;-36
2022/09/05 03:38:47;;;;;;;5.10;3.80;;;18.20;92.70;;;;;;5005716;28;20045;-35
2022/09/05 03:41:42;;;;;;;4.65;3.42;;;18.20;92.70;;;;;;5005872;28;20100;-35
2022/09/05 03:44:10;;;;;;;5.88;4.60;;;18.20;93.00;;;;;;5007924;28;20114;-36
2022/09/05 03:47:01;;;;;;;7.88;3.97;;;18.20;92.80;;;;;;5006637;28;20129;-35
2022/09/05 03:49:29;;;;;;;8.30;4.65;;;18.10;93.00;;;;;;5007720;28;20091;-35
2022/09/05 03:52:14;;;;;;;4.65;3.38;;;18.10;92.90;;;;;;5008841;28;20050;-36
2022/09/05 03:55:04;;;;;;;5.65;3.40;;;18.10;93.20;;;;;;5005744;28;20048;-36
2022/09/05 03:57:49;;;;;;;5.43;4.00;;;18.10;93.30;;;;;;5004793;28;20054;-36
2022/09/05 04:00:29;;;;;;;6.72;4.50;;;18.10;93.40;;;;;;5004959;28;20042;-36
2022/09/05 04:03:14;;;;;;;16.77;4.60;;;18.10;93.30;;;;;;5007621;28;20044;-37
2022/09/05 04:05:45;;;;;;;8.32;4.43;;;18.10;93.10;;;;;;5009295;28;20508;-36
2022/09/05 04:08:46;;;;;;;5.97;3.90;;;18.00;93.40;;;;;;5005363;28;20042;-36
2022/09/05 04:11:23;;;;;;;6.22;4.80;;;18.00;93.90;;;;;;4975374;28;20050;-35
2022/09/05 04:13:56;;;;;;;5.63;4.05;;;18.00;93.50;;;;;;5008628;28;20060;-36
2022/09/05 04:16:27;;;;;;;;;;;18.00;93.50;;;;;;5003274;28;20507;-36
2022/09/05 04:19:06;;;;;;;4.95;3.95;;;18.00;94.40;;;;;;5008592;28;19925;-34
2022/09/05 04:21:43;;;;;;;5.85;3.78;;;17.90;93.40;;;;;;5007205;28;20042;-36
2022/09/05 04:24:39;;;;;;;8.45;3.90;;;17.90;93.60;;;;;;5004266;28;20100;-37
2022/09/05 04:27:05;;;;;;;5.60;3.80;;;17.90;93.80;;;;;;4990158;28;20534;-35
2022/09/05 04:29:55;;;;;;;5.90;4.30;;;17.90;93.80;;;;;;5006713;28;20038;-35
2022/09/05 04:32:35;;;;;;;5.47;4.28;;;17.90;94.00;;;;;;5006739;28;20087;-36
2022/09/05 04:35:25;;;;;;;5.25;4.03;;;17.90;93.90;;;;;;5002316;28;20077;-36
2022/09/05 04:37:54;;;;;;;9.15;4.72;;;17.90;94.00;;;;;;5001109;28;20093;-36
2022/09/05 04:40:43;;;;;;;6.25;4.60;;;17.90;94.00;;;;;;5005414;28;20072;-35
2022/09/05 04:43:43;;;;;;;5.20;3.78;;;17.90;94.20;;;;;;5007387;28;20561;-35
2022/09/05 04:46:22;;;;;;;6.07;4.32;;;17.90;94.20;;;;;;5002933;28;20085;-35
2022/09/05 04:49:00;;;;;;;7.05;4.57;;;17.90;94.00;;;;;;5008756;28;20488;-35
2022/09/05 04:51:41;;;;;;;5.53;4.38;;;17.80;94.00;;;;;;5006829;28;20096;-36
2022/09/05 04:54:25;;;;;;;5.82;4.53;;;17.80;94.00;;;;;;5005825;28;20048;-37
2022/09/05 04:57:00;;;;;;;8.43;3.72;;;17.80;94.40;;;;;;5003985;28;20494;-36
2022/09/05 04:59:33;;;;;;;22.17;7.55;;;17.70;94.20;;;;;;5004279;28;21389;-36
2022/09/05 05:02:15;;;;;;;5.82;4.43;;;17.70;94.20;;;;;;5004186;28;20096;-35
2022/09/05 05:04:41;;;;;;;7.38;4.10;;;17.70;94.90;;;;;;4981608;28;20034;-36
2022/09/05 05:07:29;;;;;;;5.65;3.50;;;17.70;94.50;;;;;;5005091;28;20045;-36
2022/09/05 05:10:00;;;;;;;5.82;4.00;;;17.70;95.00;;;;;;5003532;28;20053;-34
2022/09/05 05:12:32;;;;;;;6.50;4.18;;;17.60;94.70;;;;;;5006387;28;20513;-34
2022/09/05 05:15:03;;;;;;;6.65;4.22;;;17.60;94.80;;;;;;5004312;28;20427;-37
2022/09/05 05:17:37;;;;;;;6.55;4.60;;;17.60;94.80;;;;;;5003637;28;20630;-35
2022/09/05 05:20:19;;;;;;;7.32;3.92;;;17.60;94.70;;;;;;5003599;28;20042;-36
2022/09/05 05:23:05;;;;;;;6.88;3.97;;;17.60;94.70;;;;;;5006423;28;20038;-35
2022/09/05 05:25:39;;;;;;;4.82;3.38;;;17.60;94.90;;;;;;5004155;28;20069;-35
2022/09/05 05:28:12;;;;;;;7.03;4.32;;;17.60;94.70;;;;;;5004382;28;20038;-35
2022/09/05 05:30:39;;;;;;;6.65;4.65;;;17.60;94.80;;;;;;5001380;28;20041;-35
2022/09/05 05:33:33;;;;;;;6.07;4.63;;;17.60;94.80;;;;;;5006337;28;20048;-35
2022/09/05 05:36:01;;;;;;;5.68;3.42;;;17.60;95.20;;;;;;4999816;28;20065;-36
2022/09/05 05:38:44;;;;;;;7.75;3.97;;;17.60;94.80;;;;;;5011923;28;25584;-36
2022/09/05 05:41:33;;;;;;;7.40;4.57;;;17.60;94.70;;;;;;5026294;28;20033;-35
2022/09/05 05:44:12;;;;;;;5.90;3.58;;;17.60;94.80;;;;;;5032386;28;20130;-35
2022/09/05 05:46:40;;;;;;;5.05;3.78;;;17.60;95.00;;;;;;5028963;28;20077;-35
2022/09/05 05:49:39;;;;;;;5.75;4.47;;;17.70;94.70;;;;;;5033429;28;20558;-34
2022/09/05 05:52:25;;;;;;;7.68;4.68;;;17.70;94.90;;;;;;5031465;28;20120;-34
2022/09/05 05:55:00;;;;;;;6.65;4.57;;;17.70;94.60;;;;;;5025190;28;20505;-37
2022/09/05 05:57:44;;;;;;;7.18;3.83;;;17.70;94.70;;;;;;5031436;28;20044;-36
2022/09/05 06:00:16;;;;;;;6.68;5.18;;;17.70;94.60;;;;;;5029205;28;20482;-36
2022/09/05 06:03:03;;;;;;;9.88;5.05;;;17.70;94.70;;;;;;5028468;28;20113;-36
2022/09/05 06:05:47;;;;;;;10.00;4.13;;;17.70;95.30;;;;;;5033315;28;20565;-36
2022/09/05 06:08:40;;;;;;;6.43;3.15;;;17.70;94.50;;;;;;5026713;28;20041;-37
2022/09/05 06:11:27;;;;;;;8.98;5.03;;;17.90;93.90;;;;;;5032334;28;20045;-37
2022/09/05 06:14:20;;;;;;;6.85;4.72;;;18.10;93.10;;;;;;5031651;28;20053;-35
2022/09/05 06:16:49;;;;;;;8.40;5.45;;;18.30;93.00;;;;;;5025194;28;20044;-36
2022/09/05 06:20:00;;;;;;;6.00;4.93;;;18.50;92.40;;;;;;5025583;28;20025;-36
2022/09/05 06:23:02;;;;;;;6.70;4.78;;;18.70;91.20;;;;;;5030997;28;20049;-35
2022/09/05 06:25:31;;;;;;;8.52;4.95;;;18.70;91.80;;;;;;5021823;28;20124;-36
2022/09/05 06:28:31;;;;;;;4.88;3.60;;;18.80;91.50;;;;;;5032455;28;20049;-37
2022/09/05 06:31:37;;;;;;;7.35;4.25;;;18.90;90.40;;;;;;5029917;28;20229;-35
2022/09/05 06:34:35;;;;;;;6.05;4.85;;;19.00;91.20;;;;;;4989253;28;20049;-36
2022/09/05 06:37:38;;;;;;;8.00;5.03;;;19.00;91.30;;;;;;5024433;28;20522;-35
2022/09/05 06:40:27;;;;;;;6.80;4.05;;;19.10;88.80;;;;;;5028925;28;20487;-36
2022/09/05 06:43:13;;;;;;;5.65;3.58;;;19.20;90.20;;;;;;5030377;28;20037;-36
2022/09/05 06:45:56;;;;;;;8.77;5.50;;;19.30;89.00;;;;;;5032742;28;20072;-36
2022/09/05 06:48:42;;;;;;;6.72;5.47;;;19.50;89.60;;;;;;5029532;28;20440;-35
2022/09/05 06:51:11;;;;;;;6.03;4.70;;;19.40;90.40;;;;;;5019616;28;20048;-37
2022/09/05 06:53:54;;;;;;;7.03;4.85;;;19.40;90.10;;;;;;5027349;28;20160;-37
2022/09/05 06:56:46;;;;;;;6.57;5.13;;;19.60;90.00;;;;;;5026467;28;20041;-35
2022/09/05 06:59:50;;;;;;;8.00;4.85;;;19.60;89.40;;;;;;5025921;28;20410;-36
2022/09/05 07:02:30;;;;;;;12.13;5.05;;;19.70;90.00;;;;;;4994218;28;20037;-36
2022/09/05 07:05:08;;;;;;;5.50;4.10;;;19.70;90.60;;;;;;5016588;28;20041;-37
2022/09/05 07:07:43;;;;;;;5.70;4.30;;;19.70;90.50;;;;;;5022284;28;20556;-36
2022/09/05 07:10:24;;;;;;;5.28;3.50;;;19.80;90.20;;;;;;5020324;28;20033;-37
2022/09/05 07:12:58;;;;;;;5.35;4.35;;;19.80;89.80;;;;;;5025348;28;20053;-35
2022/09/05 07:15:54;;;;;;;9.13;5.93;;;20.00;89.90;;;;;;5025832;28;20080;-36
2022/09/05 07:18:42;;;;;;;6.78;4.75;;;20.10;89.70;;;;;;5022949;28;20064;-36
2022/09/05 07:21:41;;;;;;;5.97;3.38;;;20.20;90.10;;;;;;5025123;28;20041;-38
2022/09/05 07:24:16;;;;;;;7.88;4.93;;;20.30;90.30;;;;;;4989424;28;20049;-36
2022/09/05 07:26:45;;;;;;;11.02;6.30;;;20.40;89.50;;;;;;5021656;28;20041;-35
2022/09/05 07:29:16;;;;;;;7.55;5.07;;;20.50;89.40;;;;;;5025044;28;20148;-37
2022/09/05 07:31:45;;;;;;;7.05;5.53;;;20.60;89.40;;;;;;4990300;28;20041;-37
2022/09/05 07:34:32;;;;;;;9.15;6.47;;;20.70;89.60;;;;;;5026393;28;20115;-39
2022/09/05 07:37:07;;;;;;;8.60;6.07;;;20.80;89.90;;;;;;5022626;28;20041;-37
2022/09/05 07:39:40;;;;;;;7.35;6.63;;;20.80;89.60;;;;;;5026882;28;20037;-37
2022/09/05 07:42:14;;;;;;;8.05;5.57;;;20.90;89.20;;;;;;5024824;28;20654;-37
2022/09/05 07:44:57;;;;;;;5.50;3.80;;;21.00;88.90;;;;;;5027387;28;20445;-36
2022/09/05 07:47:29;;;;;;;8.60;5.88;;;21.20;88.00;;;;;;5023541;28;20050;-36
2022/09/05 07:49:59;;;;;;;7.77;6.30;;;21.40;87.70;;;;;;5027852;28;20495;-36
2022/09/05 07:52:26;;;;;;;7.88;5.35;;;21.50;87.80;;;;;;5021526;28;20037;-36
2022/09/05 07:54:53;;;;;;;8.13;3.85;;;21.60;88.00;;;;;;5007237;28;20045;-36
2022/09/05 07:57:35;;;;;;;8.13;5.13;;;21.60;87.20;;;;;;5024664;28;20049;-36
2022/09/05 08:00:11;;;;;;;6.75;5.28;;;21.70;87.30;;;;;;5025995;28;20041;-37
2022/09/05 08:02:44;;;;;;;8.13;5.72;;;21.80;86.60;;;;;;5026554;28;20065;-38
2022/09/05 08:05:13;;;;;;;9.75;7.00;;;21.90;86.90;;;;;;5023910;28;20044;-36
2022/09/05 08:07:43;;;;;;;6.93;5.97;;;22.00;86.80;;;;;;5026287;28;20042;-36
2022/09/05 08:10:17;;;;;;;6.15;3.50;;;22.10;86.70;;;;;;5027675;28;20502;-36
2022/09/05 08:13:02;;;;;;;6.60;4.88;;;22.20;86.10;;;;;;5027410;28;20073;-36
2022/09/05 08:15:29;;;;;;;6.35;5.57;;;22.20;85.50;;;;;;5028772;28;20037;-36
2022/09/05 08:18:08;;;;;;;6.22;4.57;;;22.30;86.00;;;;;;5025786;28;20060;-36
2022/09/05 08:20:42;;;;;;;11.45;6.18;;;22.50;85.90;;;;;;5024289;28;20060;-37
2022/09/05 08:23:38;;;;;;;11.15;5.97;;;22.50;86.00;;;;;;5022604;28;20188;-37
2022/09/05 08:26:13;;;;;;;6.47;4.95;;;22.60;85.70;;;;;;5022377;28;20095;-36
2022/09/05 08:28:52;;;;;;;7.07;5.15;;;22.70;85.60;;;;;;5026379;28;20083;-36
2022/09/05 08:31:32;;;;;;;8.07;5.05;;;22.90;85.60;;;;;;5025030;28;20049;-36
2022/09/05 08:34:00;;;;;;;7.53;5.68;;;22.90;85.30;;;;;;5023657;28;20045;-36
2022/09/05 08:36:45;;;;;;;7.53;4.68;;;23.00;85.20;;;;;;5010715;28;20047;-37
2022/09/05 08:39:15;;;;;;;9.10;6.00;;;23.10;84.70;;;;;;5025770;28;20100;-36
2022/09/05 08:41:53;;;;;;;6.15;4.43;;;23.20;84.70;;;;;;5029485;28;20041;-36
2022/09/05 08:44:37;;;;;;;8.60;5.50;;;23.40;84.80;;;;;;5025332;28;20174;-36
2022/09/05 08:47:22;;;;;;;6.63;4.50;;;23.40;84.20;;;;;;5025707;28;20057;-36
2022/09/05 08:50:08;;;;;;;8.20;5.03;;;23.50;84.30;;;;;;5025055;28;20053;-38
2022/09/05 08:52:56;;;;;;;6.93;4.90;;;23.70;84.40;;;;;;5009562;28;20045;-37
2022/09/05 08:55:40;;;;;;;7.25;4.88;;;23.90;83.90;;;;;;5027597;28;20037;-36
2022/09/05 08:58:31;;;;;;;8.15;4.68;;;24.00;83.20;;;;;;5018810;28;20045;-37
2022/09/05 09:01:15;;;;;;;6.13;4.50;;;24.10;83.10;;;;;;5019809;28;20049;-36
2022/09/05 09:04:09;;;;;;;6.57;3.65;;;24.20;82.50;;;;;;5023904;28;20099;-36
2022/09/05 09:06:46;;;;;;;6.38;4.53;;;24.30;82.50;;;;;;5022842;28;20040;-35
2022/09/05 09:09:20;;;;;;;8.00;4.25;;;24.40;81.80;;;;;;5025904;28;20087;-36
2022/09/05 09:12:17;;;;;;;6.90;4.18;;;24.60;81.50;;;;;;5023123;28;20059;-35
2022/09/05 09:14:56;;;;;;;6.45;3.67;;;24.70;80.70;;;;;;5013103;28;20113;-36
2022/09/05 09:17:40;;;;;;;7.13;4.05;;;24.80;80.20;;;;;;5025308;28;20033;-36
2022/09/05 09:20:08;;;;;;;5.90;4.07;;;25.00;79.50;;;;;;5020560;28;20037;-37
2022/09/05 09:22:58;;;;;;;6.00;3.65;;;25.10;79.10;;;;;;5026273;28;20487;-36
2022/09/05 09:25:35;;;;;;;7.70;3.92;;;25.30;78.00;;;;;;5028420;28;20124;-37
2022/09/05 09:28:34;;;;;;;7.50;3.88;;;25.40;78.00;;;;;;5027473;28;20092;-36
2022/09/05 09:31:14;;;;;;;4.25;2.90;;;25.50;77.30;;;;;;5021382;28;20045;-36
2022/09/05 09:33:53;;;;;;;5.32;2.88;;;25.60;76.40;;;;;;5007546;28;20396;-38
2022/09/05 09:36:56;;;;;;;5.57;3.20;;;25.80;76.00;;;;;;5025529;28;20037;-36
2022/09/05 09:39:30;;;;;;;6.50;2.75;;;25.90;75.00;;;;;;5024765;28;20518;-36
2022/09/05 09:42:14;;;;;;;4.00;2.50;;;26.00;74.10;;;;;;5026071;28;20554;-36
2022/09/05 09:45:04;;;;;;;3.97;2.47;;;26.10;73.40;;;;;;5024714;28;20107;-35
2022/09/05 09:48:01;;;;;;;5.95;2.80;;;26.20;71.90;;;;;;5019642;28;20061;-36
2022/09/05 09:50:56;;;;;;;4.15;2.80;;;26.30;71.20;;;;;;5025766;28;20568;-36
2022/09/05 09:53:52;;;;;;;7.30;2.75;;;26.30;70.10;;;;;;5025460;28;20495;-36
2022/09/05 09:56:53;;;;;;;4.88;3.00;;;26.40;70.80;;;;;;5025601;28;20045;-37
2022/09/05 09:59:42;;;;;;;4.88;2.50;;;26.50;69.40;;;;;;5024166;28;20124;-36
2022/09/05 10:02:37;;;;;;;4.63;2.15;;;26.60;69.80;;;;;;5026226;28;20136;-37
2022/09/05 10:05:32;;;;;;;6.60;1.77;;;26.70;68.90;;;;;;5023609;28;20099;-35
2022/09/05 10:08:14;;;;;;;5.28;2.25;;;26.80;67.10;;;;;;5025562;28;20495;-38
2022/09/05 10:10:52;;;;;;;4.57;2.53;;;26.90;66.30;;;;;;5023594;28;20052;-36
2022/09/05 10:13:23;;;;;;;3.33;2.20;;;27.10;66.80;;;;;;5024514;28;21142;-37
2022/09/05 10:16:16;;;;;;;4.57;2.07;;;27.20;65.50;;;;;;5024072;28;20040;-36
2022/09/05 10:18:46;;;;;;;6.43;1.67;;;27.40;62.70;;;;;;5024763;28;20312;-37
2022/09/05 10:21:32;;;;;;;3.42;1.63;;;27.50;63.60;;;;;;5023362;28;20033;-36
2022/09/05 10:24:27;;;;;;;2.67;1.02;;;27.60;60.80;;;;;;5024662;28;20041;-38
2022/09/05 10:27:01;;;;;;;1.33;1.02;;;27.70;56.50;;;;;;4989195;28;20119;-36
2022/09/05 10:29:43;;;;;;;2.45;1.40;;;27.70;57.60;;;;;;5021243;28;20099;-37
2022/09/05 10:32:37;;;;;;;2.38;1.10;;;27.80;53.90;;;;;;5027934;28;20041;-37
2022/09/05 10:35:22;;;;;;;2.63;1.30;;;27.80;51.70;;;;;;5029938;28;20128;-37
2022/09/05 10:38:10;;;;;;;2.47;1.23;;;27.90;53.20;;;;;;5026455;28;20073;-37
2022/09/05 10:40:42;;;;;;;3.00;1.13;;;28.00;51.40;;;;;;5031386;28;20108;-37
2022/09/05 10:43:15;;;;;;;1.73;1.15;;;28.00;52.60;;;;;;5027267;28;21726;-36
2022/09/05 10:45:56;;;;;;;3.08;1.42;;;28.10;50.10;;;;;;5021038;28;20041;-38
2022/09/05 10:48:41;;;;;;;3.50;1.00;;;28.10;50.30;;;;;;5023106;28;20137;-36
2022/09/05 10:51:41;;;;;;;5.22;1.30;;;28.20;47.80;;;;;;5024065;28;20042;-36
2022/09/05 10:54:37;;;;;;;3.35;1.65;;;28.30;47.20;;;;;;5028282;28;20470;-37
2022/09/05 10:57:21;;;;;;;4.10;1.52;;;28.40;48.00;;;;;;5021584;28;20060;-37
2022/09/05 10:59:55;;;;;;;7.20;1.75;;;28.50;48.00;;;;;;5023591;28;20033;-37
2022/09/05 11:02:25;;;;;;;3.15;1.30;;;28.50;47.30;;;;;;5023450;28;20029;-36
2022/09/05 11:05:07;;;;;;;4.72;1.35;;;28.70;47.60;;;;;;5022711;28;20044;-37
2022/09/05 11:07:46;;;;;;;3.40;1.45;;;28.80;46.60;;;;;;5025703;28;20045;-38
2022/09/05 11:10:21;;;;;;;6.50;1.30;;;29.00;45.60;;;;;;5028049;28;20132;-37
2022/09/05 11:12:57;;;;;;;2.40;1.10;;;29.00;45.50;;;;;;5025407;28;20037;-35
2022/09/05 11:15:49;;;;;;;2.17;1.30;;;29.10;44.60;;;;;;5021249;28;20042;-36
2022/09/05 11:18:28;;;;;;;2.10;1.17;;;29.10;44.30;;;;;;5022136;28;20046;-36
2022/09/05 11:21:11;;;;;;;2.47;0.90;;;29.20;44.30;;;;;;5020770;28;20033;-37
2022/09/05 11:23:44;;;;;;;1.77;1.00;;;29.20;42.60;;;;;;5024759;28;20522;-43
2022/09/05 11:26:33;;;;;;;1.48;0.95;;;29.20;43.00;;;;;;5009371;28;20172;-37
2022/09/05 11:29:13;;;;;;;1.58;1.05;;;29.20;42.00;;;;;;4999522;28;20053;-37
2022/09/05 11:31:45;;;;;;;2.13;1.10;;;29.20;42.60;;;;;;5028644;28;20060;-37
2022/09/05 11:34:33;;;;;;;3.28;0.93;;;29.30;42.70;;;;;;5024598;28;20044;-37
2022/09/05 11:37:02;;;;;;;1.40;0.90;;;29.40;41.90;;;;;;5024450;28;20099;-38
2022/09/05 11:40:05;;;;;;;3.70;1.20;;;29.60;42.00;;;;;;5025704;28;20049;-36
2022/09/05 11:42:40;;;;;;;2.17;1.20;;;29.70;40.40;;;;;;5025796;28;20128;-36
2022/09/05 11:45:40;;;;;;;3.35;1.00;;;29.90;40.60;;;;;;5025604;28;20041;-36
2022/09/05 11:48:46;;;;;;;4.40;1.13;;;30.10;40.40;;;;;;5028154;28;20518;-37
2022/09/05 11:51:49;;;;;;;3.67;1.20;;;30.40;39.90;;;;;;5027241;28;20045;-36
2022/09/05 11:54:50;;;;;;;2.60;1.13;;;30.50;39.30;;;;;;5026884;28;20075;-36
2022/09/05 11:57:30;;;;;;;2.08;1.00;;;30.70;39.20;;;;;;4996500;28;20425;-37
2022/09/05 12:00:11;;;;;;;1.95;1.10;;;30.80;38.30;;;;;;5026169;28;20033;-36
2022/09/05 12:02:58;;;;;;;3.65;1.10;;;30.70;38.20;;;;;;5023420;28;20038;-39
2022/09/05 12:05:53;;;;;;;3.05;1.30;;;30.70;38.00;;;;;;5027021;28;20041;-37
2022/09/05 12:08:44;;;;;;;1.63;1.15;;;30.50;38.10;;;;;;5020133;28;20065;-38
2022/09/05 12:11:37;;;;;;;2.13;1.10;;;30.40;38.60;;;;;;5023174;28;20040;-38
2022/09/05 12:14:42;;;;;;;3.78;0.90;;;30.20;38.20;;;;;;5027285;28;20435;-37
2022/09/05 12:17:36;;;;;;;1.60;0.98;;;30.20;38.90;;;;;;5002050;28;20084;-37
2022/09/05 12:20:12;;;;;;;2.33;1.17;;;30.20;38.60;;;;;;5028995;28;20037;-36
2022/09/05 12:23:10;;;;;;;4.13;1.23;;;30.20;38.80;;;;;;5008294;28;20042;-36
2022/09/05 12:26:12;;;;;;;1.38;1.05;;;30.10;38.20;;;;;;5026191;28;20038;-37
2022/09/05 12:28:54;;;;;;;1.60;1.10;;;30.20;39.30;;;;;;5012980;28;20045;-36
2022/09/05 12:31:24;;;;;;;2.22;1.13;;;30.30;39.10;;;;;;5024388;28;20151;-40
2022/09/05 12:33:50;;;;;;;2.38;1.25;;;30.40;39.00;;;;;;4998342;28;20046;-37
2022/09/05 12:36:41;;;;;;;3.65;1.30;;;30.40;38.70;;;;;;5029169;28;20044;-36
2022/09/05 12:39:28;;;;;;;4.63;1.42;;;30.30;38.30;;;;;;5027301;28;20487;-36
2022/09/05 12:42:20;;;;;;;4.68;1.33;;;30.40;38.40;;;;;;5025040;28;20124;-37
2022/09/05 12:45:08;;;;;;;;;;;30.40;38.60;;;;;;5023051;28;20048;-35
2022/09/05 12:48:22;;;;;;;1.75;1.20;;;30.40;37.90;;;;;;5020999;28;19929;-36
2022/09/05 12:50:57;;;;;;;2.10;0.90;;;30.40;38.20;;;;;;4986639;28;20050;-36
2022/09/05 12:53:24;;;;;;;2.22;1.15;;;30.40;38.10;;;;;;5025356;28;20120;-36
2022/09/05 12:56:20;;;;;;;5.88;1.10;;;30.50;38.50;;;;;;5008266;28;20049;-37
2022/09/05 12:58:49;;;;;;;2.47;1.20;;;30.80;37.70;;;;;;5026217;28;20558;-36
2022/09/05 13:01:15;;;;;;;1.95;1.00;;;31.20;37.10;;;;;;5023346;28;20799;-36
2022/09/05 13:03:55;;;;;;;2.65;0.98;;;31.60;36.70;;;;;;5025939;28;20076;-36
2022/09/05 13:06:41;;;;;;;1.98;1.05;;;32.10;35.70;;;;;;5020657;28;20041;-38
2022/09/05 13:09:23;;;;;;;2.13;0.90;;;32.50;34.00;;;;;;5018463;28;20042;-36
2022/09/05 13:12:08;;;;;;;3.63;1.20;;;32.70;33.80;;;;;;5018324;28;20045;-41
2022/09/05 13:14:58;;;;;;;1.60;0.93;;;33.00;33.20;;;;;;5021594;28;21529;-35
2022/09/05 13:17:33;;;;;;;1.58;1.02;;;33.60;32.60;;;;;;5011797;28;20057;-37
2022/09/05 13:20:00;;;;;;;1.55;0.98;;;34.20;31.80;;;;;;5019073;28;20135;-37
2022/09/05 13:22:27;;;;;;;2.63;1.52;;;34.50;31.50;;;;;;5021790;28;20403;-37
2022/09/05 13:25:07;;;;;;;2.70;1.10;;;34.40;31.10;;;;;;5026111;28;20037;-38
2022/09/05 13:27:39;;;;;;;1.33;1.15;;;34.50;31.10;;;;;;5025048;28;20498;-35
2022/09/05 13:30:10;;;;;;;3.35;1.20;;;34.70;30.90;;;;;;5025462;28;20025;-36
2022/09/05 13:32:46;;;;;;;2.08;1.20;;;34.30;30.50;;;;;;5024663;28;20038;-36
2022/09/05 13:35:23;;;;;;;2.42;1.27;;;34.00;31.70;;;;;;5002089;28;20059;-36
2022/09/05 13:38:02;;;;;;;1.92;1.40;;;34.30;31.40;;;;;;5023565;28;20049;-37
2022/09/05 13:40:36;;;;;;;3.70;1.45;;;34.90;30.00;;;;;;5024456;28;20037;-36
2022/09/05 13:43:10;;;;;;;2.53;1.20;;;35.40;29.70;;;;;;5027943;28;20052;-36
2022/09/05 13:45:45;;;;;;;3.05;0.98;;;36.00;29.30;;;;;;5009940;28;20379;-36
2022/09/05 13:48:50;;;;;;;2.17;1.10;;;36.40;28.30;;;;;;5025734;28;20391;-36
2022/09/05 13:51:35;;;;;;;5.65;1.20;;;37.10;27.70;;;;;;4966804;28;20088;-37
2022/09/05 13:54:35;;;;;;;2.10;0.95;;;37.30;27.80;;;;;;5019633;28;20147;-36
2022/09/05 13:57:31;;;;;;;2.20;0.90;;;37.40;27.90;;;;;;5021167;28;20053;-36
2022/09/05 14:00:09;;;;;;;1.98;1.05;;;37.50;27.20;;;;;;4999348;28;20159;-37
2022/09/05 14:03:07;;;;;;;1.52;1.00;;;37.90;27.00;;;;;;5026428;28;20040;-37
2022/09/05 14:05:33;;;;;;;1.27;0.90;;;38.30;26.40;;;;;;5011272;28;20123;-36
2022/09/05 14:08:15;;;;;;;2.10;1.10;;;38.80;27.00;;;;;;5027178;28;20128;-37
2022/09/05 14:11:07;;;;;;;1.60;1.10;;;39.30;25.30;;;;;;5011377;28;20116;-36
2022/09/05 14:14:03;;;;;;;2.55;1.20;;;39.80;24.20;;;;;;5002305;28;20065;-37